Terminal Aerodrome Forecast
Issued by NWS

Home | Current Version | Previous Version | Text Only | Print | Product List | Glossary On
Versions: 1 2 3 4 5 6 7 8 9 10 11 12 13 14 15 16
001
FTUS44 KLZK 110024 AAA
TAFBPK
TAF AMD
KBPK 110024Z 1100/1124 VRB06KT P6SM SKC
      TEMPO 1100/1102 3SM HZ
     FM111000 03007KT P6SM SCT250=

USA.gov is the U.S. government's official web portal to all federal, state and local government web resources and services.